Terminal Aerodrome Forecast
Issued by NWS

Home | Current Version | Previous Version | Text Only | Print | Product List | Glossary On
Versions: 1 2 3 4 5 6 7 8 9 10 11 12 13 14 15 16 17 18 19 20 21 22 23 24 25 26 27 28 29 30
218
FTUS46 KLOX 302047 AAC
TAFLAX
TAF AMD
KLAX 302047Z 3021/3124 27012KT P6SM FEW007 FEW090
     FM310300 25006KT P6SM SCT015
     FM310900 VRB03KT 6SM BR BKN010
     FM311200 VRB03KT 6SM BR OVC012
     FM311500 15004KT 5SM HZ OVC015
     FM311800 23008KT 6SM HZ BKN020
     FM312100 24010KT P6SM SCT250=

USA.gov is the U.S. government's official web portal to all federal, state and local government web resources and services.